createdAt,value
2019-03-02T00:02:24.139Z,99.90
2019-03-02T00:04:50.340Z,99.90
2019-03-02T00:07:16.817Z,99.90
2019-03-02T00:09:43.304Z,99.90
2019-03-02T00:12:09.985Z,99.90
2019-03-02T00:14:36.576Z,99.90
2019-03-02T00:17:03.150Z,99.90
2019-03-02T00:19:29.640Z,99.90
2019-03-02T00:21:56.372Z,99.90
2019-03-02T00:24:23.020Z,99.90
2019-03-02T00:26:49.617Z,99.90
2019-03-02T00:29:16.200Z,99.90
2019-03-02T00:31:42.952Z,99.90
2019-03-02T00:34:09.499Z,99.90
2019-03-02T00:36:36.091Z,99.90
2019-03-02T00:39:04.636Z,99.90
2019-03-02T00:41:31.504Z,99.90
2019-03-02T00:43:59.828Z,99.90
2019-03-02T00:46:26.169Z,99.90
2019-03-02T00:48:52.841Z,99.90
2019-03-02T00:51:19.633Z,99.90
2019-03-02T00:53:46.192Z,99.90
2019-03-02T00:56:12.684Z,99.90
2019-03-02T00:58:39.141Z,99.90
2019-03-02T01:01:05.730Z,99.90
2019-03-02T01:03:32.405Z,99.90
2019-03-02T01:05:59.005Z,99.90
2019-03-02T01:08:25.579Z,99.90
2019-03-02T01:10:54.777Z,99.90
2019-03-02T01:13:22.950Z,99.90
2019-03-02T01:15:49.028Z,99.90
2019-03-02T01:18:15.616Z,99.90
2019-03-02T01:20:42.590Z,99.90
2019-03-02T01:23:09.276Z,99.90
2019-03-02T01:25:35.751Z,99.90
2019-03-02T01:28:02.435Z,99.90
2019-03-02T01:30:30.012Z,99.90
2019-03-02T01:32:57.301Z,99.90
2019-03-02T01:35:24.133Z,99.90
2019-03-02T01:37:50.739Z,99.90
2019-03-02T01:40:17.403Z,99.90
2019-03-02T01:42:43.896Z,99.90
2019-03-02T01:45:12.765Z,99.90
2019-03-02T01:47:39.238Z,99.90
2019-03-02T01:50:08.634Z,99.90
2019-03-02T01:52:36.767Z,99.90
2019-03-02T01:55:05.661Z,99.90
2019-03-02T01:57:32.115Z,99.90
2019-03-02T01:59:58.706Z,99.90
2019-03-02T02:02:25.367Z,99.90
2019-03-02T02:04:54.535Z,99.90
2019-03-02T02:07:20.134Z,99.90
2019-03-02T02:09:46.722Z,99.90
2019-03-02T02:12:13.786Z,99.90
2019-03-02T02:14:40.268Z,99.90
2019-03-02T02:17:06.940Z,99.90
2019-03-02T02:19:34.796Z,99.90
2019-03-02T02:22:21.557Z,99.90
2019-03-02T02:24:48.158Z,99.90
2019-03-02T02:27:14.712Z,99.90
2019-03-02T02:29:43.509Z,99.90
2019-03-02T02:32:09.573Z,99.90
2019-03-02T02:34:36.167Z,99.90
2019-03-02T02:37:02.829Z,99.90
2019-03-02T02:39:33.633Z,99.90
2019-03-02T02:41:59.940Z,99.90
2019-03-02T02:44:26.462Z,99.90
2019-03-02T02:46:53.022Z,99.90
2019-03-02T02:49:19.616Z,99.90
2019-03-02T02:51:49.462Z,99.90
2019-03-02T02:54:14.339Z,99.90
2019-03-02T02:56:40.912Z,99.90
2019-03-02T02:59:07.474Z,99.90
2019-03-02T03:01:35.014Z,99.90
2019-03-02T03:04:01.944Z,99.90
2019-03-02T03:06:32.540Z,99.90
2019-03-02T03:08:56.987Z,99.90
2019-03-02T03:11:23.605Z,99.90
2019-03-02T03:13:50.053Z,99.90
2019-03-02T03:16:17.915Z,99.90
2019-03-02T03:18:47.030Z,99.90
2019-03-02T03:21:12.897Z,99.90
2019-03-02T03:23:39.461Z,99.90
2019-03-02T03:26:06.319Z,99.90
2019-03-02T03:28:33.162Z,99.90
2019-03-02T03:30:59.841Z,99.90
2019-03-02T03:33:26.403Z,99.90
2019-03-02T03:35:56.132Z,99.90
2019-03-02T03:38:24.973Z,99.90
2019-03-02T03:40:49.974Z,99.90
2019-03-02T03:43:16.547Z,99.90
2019-03-02T03:45:45.049Z,99.90
2019-03-02T03:48:12.983Z,99.90
2019-03-02T03:50:39.989Z,99.90
2019-03-02T03:53:06.552Z,99.90
2019-03-02T03:55:33.154Z,99.90
2019-03-02T03:58:00.357Z,99.90
2019-03-02T04:00:28.160Z,99.90
2019-03-02T04:02:54.751Z,99.90
2019-03-02T04:05:21.196Z,99.90
2019-03-02T04:07:49.671Z,99.90
2019-03-02T04:10:24.531Z,99.90
2019-03-02T04:12:44.716Z,99.90
2019-03-02T04:15:11.477Z,99.90
2019-03-02T04:17:39.047Z,99.90
2019-03-02T04:20:13.724Z,99.90
2019-03-02T04:22:44.595Z,99.90
2019-03-02T04:25:12.962Z,99.90
2019-03-02T04:27:37.600Z,99.90
2019-03-02T04:30:07.124Z,99.90
2019-03-02T04:32:33.609Z,99.90
2019-03-02T04:35:00.338Z,99.90
2019-03-02T04:37:26.865Z,99.90
2019-03-02T04:39:53.526Z,99.90
2019-03-02T04:42:20.125Z,99.90
2019-03-02T04:44:46.696Z,99.90
2019-03-02T04:47:13.622Z,99.90
2019-03-02T04:49:40.072Z,99.90
2019-03-02T04:52:06.793Z,99.90
2019-03-02T04:54:37.445Z,99.90
2019-03-02T04:57:01.634Z,99.90
2019-03-02T04:59:28.092Z,99.90
2019-03-02T05:01:54.602Z,99.90
2019-03-02T05:04:21.061Z,99.90
2019-03-02T05:06:50.660Z,99.90
2019-03-02T05:09:17.114Z,99.90
2019-03-02T05:11:44.405Z,99.90
2019-03-02T05:14:10.994Z,99.90
2019-03-02T05:16:37.543Z,99.90
2019-03-02T05:19:04.034Z,99.90
2019-03-02T05:21:30.483Z,99.90
2019-03-02T05:23:56.868Z,99.90
2019-03-02T05:26:23.616Z,99.90
2019-03-02T05:28:50.273Z,99.90
2019-03-02T05:31:17.117Z,99.90
2019-03-02T05:33:43.650Z,99.90
2019-03-02T05:36:10.160Z,99.90
2019-03-02T05:38:36.662Z,99.90
2019-03-02T05:41:03.982Z,99.90
2019-03-02T05:43:30.913Z,99.90
2019-03-02T05:45:57.756Z,99.90
2019-03-02T05:48:24.335Z,99.90
2019-03-02T05:50:50.891Z,99.90
2019-03-02T05:53:17.368Z,99.90
2019-03-02T05:55:44.205Z,99.90
2019-03-02T05:58:12.610Z,99.90
2019-03-02T06:00:39.161Z,99.90
2019-03-02T06:03:05.622Z,99.90
2019-03-02T06:05:32.397Z,99.90
2019-03-02T06:08:00.522Z,99.90
2019-03-02T06:10:27.146Z,99.90
2019-03-02T06:12:53.608Z,99.90
2019-03-02T06:15:20.098Z,99.90
2019-03-02T06:17:46.947Z,99.90
2019-03-02T06:20:13.541Z,99.90
2019-03-02T06:22:40.297Z,99.90
2019-03-02T06:25:19.391Z,99.90
2019-03-02T06:27:43.208Z,99.90
2019-03-02T06:30:16.510Z,99.90
2019-03-02T06:32:43.074Z,99.90
2019-03-02T06:35:09.644Z,99.90
2019-03-02T06:37:36.416Z,99.90
2019-03-02T06:40:05.714Z,99.90
2019-03-02T06:42:32.652Z,99.90
2019-03-02T06:44:59.152Z,99.90
2019-03-02T06:47:25.711Z,99.90
2019-03-02T06:49:53.176Z,99.90
2019-03-02T06:52:25.167Z,99.90
2019-03-02T06:54:49.208Z,99.90
2019-03-02T06:57:15.969Z,99.90
2019-03-02T06:59:42.332Z,99.90
2019-03-02T07:02:08.808Z,99.90
2019-03-02T07:04:35.272Z,99.90
2019-03-02T07:07:01.850Z,99.90
2019-03-02T07:09:28.300Z,99.90
2019-03-02T07:11:54.889Z,99.90
2019-03-02T07:14:21.353Z,99.90
2019-03-02T07:16:47.927Z,99.90
2019-03-02T07:19:33.081Z,99.90
2019-03-02T07:21:59.671Z,99.90
2019-03-02T07:24:29.443Z,99.90
2019-03-02T07:26:55.484Z,99.90
2019-03-02T07:29:22.048Z,99.90
2019-03-02T07:31:48.533Z,99.90
2019-03-02T07:34:14.996Z,99.90
2019-03-02T07:36:41.440Z,99.90
2019-03-02T07:39:08.125Z,99.90
2019-03-02T07:41:34.684Z,99.90
2019-03-02T07:44:01.361Z,99.90
2019-03-02T07:46:27.721Z,99.90
2019-03-02T07:48:54.216Z,99.90
2019-03-02T07:51:20.690Z,99.90
2019-03-02T07:53:47.173Z,99.90
2019-03-02T07:56:13.619Z,99.90
2019-03-02T07:58:40.199Z,99.90
2019-03-02T08:01:06.755Z,99.90
2019-03-02T08:03:33.241Z,99.90
2019-03-02T08:06:01.291Z,99.90
2019-03-02T08:08:27.898Z,99.90
2019-03-02T08:10:54.456Z,99.90
2019-03-02T08:13:20.944Z,99.90
2019-03-02T08:15:47.516Z,99.90
2019-03-02T08:18:14.012Z,99.90
2019-03-02T08:20:40.560Z,99.90
2019-03-02T08:23:07.025Z,99.90
2019-03-02T08:25:33.524Z,99.90
2019-03-02T08:27:59.996Z,99.90
2019-03-02T08:30:29.881Z,99.90
2019-03-02T08:32:57.730Z,99.90
2019-03-02T08:35:23.464Z,99.90
2019-03-02T08:37:50.363Z,99.90
2019-03-02T08:40:19.432Z,99.90
2019-03-02T08:42:45.734Z,99.90
2019-03-02T08:45:16.184Z,99.90
2019-03-02T08:47:42.864Z,99.90
2019-03-02T08:50:17.442Z,99.90
2019-03-02T08:52:42.449Z,99.90
2019-03-02T08:55:20.080Z,99.90
2019-03-02T08:57:46.753Z,99.90
2019-03-02T09:00:18.477Z,99.90
2019-03-02T09:02:44.968Z,99.90
2019-03-02T09:05:11.549Z,99.90
2019-03-02T09:07:38.157Z,99.90
2019-03-02T09:10:13.707Z,99.90
2019-03-02T09:12:41.169Z,99.90
2019-03-02T09:15:22.246Z,99.90
2019-03-02T09:17:50.171Z,99.90
2019-03-02T09:20:16.701Z,99.90
2019-03-02T09:22:43.294Z,99.90
2019-03-02T09:25:16.573Z,99.90
2019-03-02T09:27:43.430Z,99.90
2019-03-02T09:30:15.300Z,99.90
2019-03-02T09:32:42.114Z,99.90
2019-03-02T09:35:12.960Z,99.90
2019-03-02T09:37:40.843Z,99.90
2019-03-02T09:40:13.358Z,99.90
2019-03-02T09:42:41.202Z,99.90
2019-03-02T09:45:13.181Z,99.90
2019-03-02T09:47:40.244Z,99.90
2019-03-02T09:50:10.000Z,99.90
2019-03-02T09:52:38.308Z,99.90
2019-03-02T09:55:07.377Z,99.90
2019-03-02T09:57:34.264Z,99.90
2019-03-02T10:00:00.641Z,99.90
2019-03-02T10:02:27.149Z,99.90
2019-03-02T10:04:53.829Z,99.90
2019-03-02T10:07:20.407Z,99.90
2019-03-02T10:09:46.892Z,99.90
2019-03-02T10:12:13.754Z,99.90
2019-03-02T10:14:41.561Z,99.90
2019-03-02T10:17:08.052Z,99.90
2019-03-02T10:19:34.616Z,99.90
2019-03-02T10:22:01.010Z,99.90
2019-03-02T10:24:27.577Z,99.90
2019-03-02T10:26:54.456Z,99.90
2019-03-02T10:29:21.019Z,99.90
2019-03-02T10:31:47.708Z,99.90
2019-03-02T10:34:14.324Z,99.90
2019-03-02T10:36:41.004Z,99.90
2019-03-02T10:39:07.596Z,99.90
2019-03-02T10:41:34.263Z,99.90
2019-03-02T10:44:00.848Z,99.90
2019-03-02T10:46:27.464Z,99.90
2019-03-02T10:48:54.346Z,99.90
2019-03-02T10:51:20.811Z,99.90
2019-03-02T10:53:47.296Z,99.90
2019-03-02T10:56:13.756Z,99.90
2019-03-02T10:58:40.270Z,99.90
2019-03-02T11:01:07.330Z,99.90
2019-03-02T11:03:35.232Z,99.90
2019-03-02T11:06:07.258Z,99.90
2019-03-02T11:08:35.825Z,99.90
2019-03-02T11:11:12.960Z,99.90
2019-03-02T11:13:57.933Z,99.90
2019-03-02T11:16:29.455Z,99.90
2019-03-02T11:18:57.974Z,99.90
2019-03-02T11:21:43.522Z,99.90
2019-03-02T11:24:30.530Z,99.90
2019-03-02T11:27:01.385Z,99.90
2019-03-02T11:29:36.070Z,99.80
2019-03-02T11:32:04.569Z,99.20
2019-03-02T11:34:45.020Z,97.50
2019-03-02T11:37:30.542Z,95.80
2019-03-02T11:40:01.884Z,93.40
2019-03-02T11:42:42.779Z,96.00
2019-03-02T11:45:11.471Z,95.60
2019-03-02T11:47:56.612Z,95.90
2019-03-02T11:50:34.465Z,93.20
2019-03-02T11:53:05.926Z,90.20
2019-03-02T11:55:34.872Z,90.40
2019-03-02T11:58:03.481Z,85.00
2019-03-02T12:00:37.741Z,83.50
2019-03-02T12:03:03.881Z,80.20
2019-03-02T12:05:32.444Z,78.80
2019-03-02T12:08:12.766Z,86.70
2019-03-02T12:10:56.217Z,90.70
2019-03-02T12:13:31.160Z,93.80
2019-03-02T12:16:01.674Z,93.50
2019-03-02T12:18:36.396Z,92.50
2019-03-02T12:21:05.004Z,93.30
2019-03-02T12:23:39.362Z,94.20
2019-03-02T12:26:20.105Z,93.40
2019-03-02T12:28:51.689Z,91.50
2019-03-02T12:31:28.095Z,76.60
2019-03-02T12:34:04.905Z,72.40
2019-03-02T12:36:49.100Z,65.90
2019-03-02T12:39:20.067Z,59.10
2019-03-02T12:41:52.520Z,56.70
2019-03-02T12:44:21.341Z,62.20
2019-03-02T12:46:58.971Z,68.90
2019-03-02T12:49:25.609Z,70.00
2019-03-02T12:52:00.284Z,61.60
2019-03-02T12:54:28.685Z,63.50
2019-03-02T12:56:57.143Z,65.60
2019-03-02T12:59:39.581Z,70.80
2019-03-02T13:02:14.126Z,71.30
2019-03-02T13:04:57.599Z,70.30
2019-03-02T13:07:25.984Z,69.00
2019-03-02T13:09:57.109Z,62.10
2019-03-02T13:12:25.769Z,57.10
2019-03-02T13:15:11.082Z,55.60
2019-03-02T13:17:39.566Z,57.70
2019-03-02T13:20:15.218Z,57.20
2019-03-02T13:23:03.080Z,61.30
2019-03-02T13:25:49.730Z,62.30
2019-03-02T13:28:18.363Z,63.00
2019-03-02T13:31:07.647Z,65.50
2019-03-02T13:33:36.973Z,64.80
2019-03-02T13:36:19.046Z,65.20
2019-03-02T13:38:59.769Z,66.00
2019-03-02T13:41:37.187Z,66.30
2019-03-02T13:44:11.488Z,67.00
2019-03-02T13:46:46.767Z,67.50
2019-03-02T13:49:15.412Z,68.80
2019-03-02T13:51:59.083Z,70.10
2019-03-02T13:54:30.108Z,71.40
2019-03-02T13:57:04.773Z,79.00
2019-03-02T13:59:43.794Z,83.50
2019-03-02T14:02:18.195Z,82.60
2019-03-02T14:04:49.392Z,82.90
2019-03-02T14:07:27.197Z,83.00
2019-03-02T14:10:11.357Z,83.10
2019-03-02T14:12:46.059Z,83.60
2019-03-02T14:15:21.682Z,83.60
2019-03-02T14:17:51.603Z,77.60
2019-03-02T14:20:24.796Z,84.20
2019-03-02T14:23:05.692Z,85.30
2019-03-02T14:25:34.171Z,85.80
2019-03-02T14:28:14.680Z,87.80
2019-03-02T14:31:02.443Z,88.10
2019-03-02T14:33:33.643Z,88.80
2019-03-02T14:36:20.130Z,90.10
2019-03-02T14:38:48.558Z,91.10
2019-03-02T14:41:17.021Z,91.90
2019-03-02T14:43:48.501Z,92.90
2019-03-02T14:46:35.231Z,94.30
2019-03-02T14:49:24.503Z,95.70
2019-03-02T14:51:53.181Z,93.30
2019-03-02T14:54:25.155Z,95.00
2019-03-02T14:56:53.542Z,94.50
2019-03-02T14:59:38.831Z,94.40
2019-03-02T15:02:23.941Z,94.70
2019-03-02T15:05:01.379Z,95.80
2019-03-02T15:07:39.074Z,98.00
2019-03-02T15:10:22.947Z,99.40
2019-03-02T15:12:58.080Z,99.90
2019-03-02T15:15:43.473Z,99.90
2019-03-02T15:18:29.399Z,99.90
2019-03-02T15:21:03.382Z,99.90
2019-03-02T15:23:39.014Z,99.90
2019-03-02T15:26:08.245Z,99.90
2019-03-02T15:28:39.524Z,99.90
2019-03-02T15:31:24.567Z,99.90
2019-03-02T15:34:10.351Z,99.90
2019-03-02T15:36:56.849Z,99.90
2019-03-02T15:39:25.687Z,99.90
2019-03-02T15:42:12.204Z,99.90
2019-03-02T15:44:52.841Z,99.90
2019-03-02T15:47:37.881Z,99.90
2019-03-02T15:50:13.380Z,99.90
2019-03-02T15:52:43.749Z,99.90
2019-03-02T15:55:22.841Z,99.90
2019-03-02T15:57:53.602Z,99.90
2019-03-02T16:00:21.705Z,99.90
2019-03-02T16:02:53.143Z,99.90
2019-03-02T16:05:21.722Z,99.90
2019-03-02T16:07:55.833Z,99.90
2019-03-02T16:10:24.392Z,99.90
2019-03-02T16:12:58.825Z,99.90
2019-03-02T16:15:33.177Z,99.90
2019-03-02T16:18:01.570Z,99.90
2019-03-02T16:20:38.976Z,99.90
2019-03-02T16:23:11.798Z,99.90
2019-03-02T16:25:42.899Z,99.90
2019-03-02T16:28:28.289Z,99.90
2019-03-02T16:31:04.162Z,99.90
2019-03-02T16:33:51.551Z,99.90
2019-03-02T16:36:20.053Z,99.90
2019-03-02T16:38:48.571Z,99.90
2019-03-02T16:41:19.913Z,99.90
2019-03-02T16:43:54.195Z,99.90
2019-03-02T16:46:22.556Z,99.90
2019-03-02T16:48:56.788Z,99.90
2019-03-02T16:51:43.661Z,99.90
2019-03-02T16:54:12.368Z,99.90
2019-03-02T16:56:41.064Z,99.90
2019-03-02T16:59:09.521Z,99.90
2019-03-02T17:01:38.449Z,99.90
2019-03-02T17:04:07.022Z,99.90
2019-03-02T17:06:42.629Z,99.90
2019-03-02T17:09:17.893Z,99.90
2019-03-02T17:11:52.400Z,99.90
2019-03-02T17:14:35.889Z,99.90
2019-03-02T17:17:11.875Z,99.90
2019-03-02T17:19:44.301Z,99.90
2019-03-02T17:22:18.679Z,99.90
2019-03-02T17:24:59.902Z,99.90
2019-03-02T17:27:28.782Z,99.90
2019-03-02T17:30:00.358Z,99.90
2019-03-02T17:32:45.608Z,99.90
2019-03-02T17:35:21.082Z,99.90
2019-03-02T17:38:02.182Z,99.90
2019-03-02T17:40:45.915Z,99.90
2019-03-02T17:43:20.412Z,99.90
2019-03-02T17:45:49.091Z,99.90
2019-03-02T17:48:32.636Z,99.90
2019-03-02T17:51:01.184Z,99.90
2019-03-02T17:53:44.601Z,99.90
2019-03-02T17:56:13.219Z,99.90
2019-03-02T17:58:44.293Z,99.90
2019-03-02T18:01:24.717Z,99.90
2019-03-02T18:03:55.952Z,99.90
2019-03-02T18:06:29.160Z,99.90
2019-03-02T18:08:57.520Z,99.90
2019-03-02T18:11:25.993Z,99.90
2019-03-02T18:14:00.446Z,99.90
2019-03-02T18:16:28.919Z,99.90
2019-03-02T18:18:55.614Z,99.90
2019-03-02T18:21:22.073Z,99.90
2019-03-02T18:23:49.026Z,99.90
2019-03-02T18:26:15.693Z,99.90
2019-03-02T18:28:42.298Z,99.90
2019-03-02T18:31:09.090Z,99.90
2019-03-02T18:33:40.633Z,99.90
2019-03-02T18:36:09.783Z,99.90
2019-03-02T18:38:35.493Z,99.90
2019-03-02T18:41:02.890Z,99.90
2019-03-02T18:43:29.657Z,99.90
2019-03-02T18:45:56.331Z,99.90
2019-03-02T18:48:33.929Z,99.90
2019-03-02T18:51:08.115Z,99.90
2019-03-02T18:53:36.021Z,99.90
2019-03-02T18:56:02.993Z,99.90
2019-03-02T18:58:29.593Z,99.90
2019-03-02T19:00:57.730Z,99.90
2019-03-02T19:03:24.825Z,99.90
2019-03-02T19:05:52.420Z,99.90
2019-03-02T19:08:18.875Z,99.90
2019-03-02T19:10:45.893Z,99.90
2019-03-02T19:13:12.369Z,99.90
2019-03-02T19:15:38.970Z,99.90
2019-03-02T19:18:05.537Z,99.90
2019-03-02T19:20:32.224Z,99.90
2019-03-02T19:22:58.676Z,99.90
2019-03-02T19:25:25.492Z,99.90
2019-03-02T19:27:52.094Z,99.90
2019-03-02T19:30:19.608Z,99.90
2019-03-02T19:32:46.271Z,99.90
2019-03-02T19:35:12.951Z,99.90
2019-03-02T19:37:40.425Z,99.90
2019-03-02T19:40:22.674Z,99.90
2019-03-02T19:42:49.438Z,99.90
2019-03-02T19:45:16.142Z,99.90
2019-03-02T19:47:42.710Z,99.90
2019-03-02T19:50:17.475Z,99.90
2019-03-02T19:52:44.141Z,99.90
2019-03-02T19:55:12.977Z,99.90
2019-03-02T19:57:39.565Z,99.90
2019-03-02T20:00:12.498Z,99.90
2019-03-02T20:02:39.076Z,99.90
2019-03-02T20:05:06.872Z,99.90
2019-03-02T20:07:33.456Z,99.90
2019-03-02T20:10:00.148Z,99.90
2019-03-02T20:12:26.888Z,99.90
2019-03-02T20:14:53.373Z,99.90
2019-03-02T20:17:19.970Z,99.90
2019-03-02T20:19:46.551Z,99.90
2019-03-02T20:22:13.125Z,99.90
2019-03-02T20:24:39.686Z,99.90
2019-03-02T20:27:06.402Z,99.90
2019-03-02T20:29:32.853Z,99.90
2019-03-02T20:31:59.373Z,99.90
2019-03-02T20:34:25.841Z,99.90
2019-03-02T20:36:52.511Z,99.90
2019-03-02T20:39:19.490Z,99.90
2019-03-02T20:41:46.155Z,99.90
2019-03-02T20:44:12.632Z,99.90
2019-03-02T20:46:39.372Z,99.90
2019-03-02T20:49:06.062Z,99.90
2019-03-02T20:51:32.788Z,99.90
2019-03-02T20:53:59.402Z,99.90
2019-03-02T20:56:25.860Z,99.90
2019-03-02T20:58:52.353Z,99.90
2019-03-02T21:01:19.010Z,99.90
2019-03-02T21:03:46.073Z,99.90
2019-03-02T21:06:12.757Z,99.90
2019-03-02T21:08:39.303Z,99.90
2019-03-02T21:11:06.088Z,99.90
2019-03-02T21:13:32.600Z,99.90
2019-03-02T21:15:59.295Z,99.90
2019-03-02T21:18:25.907Z,99.90
2019-03-02T21:20:52.555Z,99.90
2019-03-02T21:23:19.105Z,99.90
2019-03-02T21:25:45.690Z,99.90
2019-03-02T21:28:12.304Z,99.90
2019-03-02T21:30:38.995Z,99.90
2019-03-02T21:33:05.650Z,99.90
2019-03-02T21:35:32.135Z,99.90
2019-03-02T21:37:58.730Z,99.90
2019-03-02T21:40:26.813Z,99.90
2019-03-02T21:42:53.282Z,99.90
2019-03-02T21:45:21.962Z,99.90
2019-03-02T21:47:49.433Z,99.90
2019-03-02T21:50:27.917Z,99.90
2019-03-02T21:52:54.889Z,99.90
2019-03-02T21:55:21.956Z,99.90
2019-03-02T21:57:48.626Z,99.90
2019-03-02T22:00:17.512Z,99.90
2019-03-02T22:02:44.196Z,99.90
2019-03-02T22:05:10.788Z,99.90
2019-03-02T22:07:37.273Z,99.90
2019-03-02T22:10:10.023Z,99.90
2019-03-02T22:12:36.766Z,99.90
2019-03-02T22:15:08.139Z,99.90
2019-03-02T22:17:34.630Z,99.90
2019-03-02T22:20:01.587Z,99.90
2019-03-02T22:22:29.378Z,99.90
2019-03-02T22:24:56.142Z,99.90
2019-03-02T22:27:22.740Z,99.90
2019-03-02T22:29:49.202Z,99.90
2019-03-02T22:32:15.740Z,99.90
2019-03-02T22:34:42.588Z,99.90
2019-03-02T22:37:08.995Z,99.90
2019-03-02T22:39:35.585Z,99.90
2019-03-02T22:42:03.714Z,99.90
2019-03-02T22:44:30.624Z,99.90
2019-03-02T22:46:57.489Z,99.90
2019-03-02T22:49:24.055Z,99.90
2019-03-02T22:51:50.643Z,99.90
2019-03-02T22:54:17.114Z,99.90
2019-03-02T22:56:44.066Z,99.90
2019-03-02T22:59:10.594Z,99.90
2019-03-02T23:01:41.076Z,99.90
2019-03-02T23:04:07.810Z,99.90
2019-03-02T23:06:34.361Z,99.90
2019-03-02T23:09:00.876Z,99.90
2019-03-02T23:11:27.544Z,99.90
2019-03-02T23:13:54.137Z,99.90
2019-03-02T23:16:20.736Z,99.90
2019-03-02T23:18:47.432Z,99.90
2019-03-02T23:21:14.290Z,99.90
2019-03-02T23:23:40.757Z,99.90
2019-03-02T23:26:07.441Z,99.90
2019-03-02T23:28:33.927Z,99.90
2019-03-02T23:31:00.548Z,99.90
2019-03-02T23:33:27.023Z,99.90
2019-03-02T23:35:53.905Z,99.90
2019-03-02T23:38:20.472Z,99.90
2019-03-02T23:40:47.075Z,99.90
2019-03-02T23:43:13.640Z,99.90
2019-03-02T23:45:40.216Z,99.90
2019-03-02T23:48:06.891Z,99.90
2019-03-02T23:50:33.266Z,99.90
2019-03-02T23:52:59.849Z,99.90
2019-03-02T23:55:26.524Z,99.90
2019-03-02T23:57:53.005Z,99.90
